Decoded Metar for ETSB (BUECHEL in GERMANY) (IATA:N/A) | Meteo·Mobile Aviation Weather
aviador You're here:

ETSB Decoded Metar

BUECHEL in GERMANY
Report Time2018-12-15 08:20:00
UTC Time2018-12-15 09:00:08
Flight Rules mvfr MVFR
Wind130° at 07 kt
W.Decomp.*RWY 21: 1.1 kt HW 6.9 kt LCW
W.Rank130° ranks 33
Current wind is above 130° avg. (4.9)
Visibility6000 m
Phenomena:N/A
Clouds:N/A
Expected CloudBase > 2,000 ft AGL from Temp-Dew spread
CeilingNone
Temp-3°C (ISA -15)
Dew Point-8°C (69% RH)
AAT-8.4°C
QNH1023 hPa
Density Alt-512 ft
Elevation1,594 ft
Report Wrong Elevation
Raw Report
METAR ETSB 150820Z AUTO 13007KT 6000 // ////// M03/M08 Q1023 ///=

Extra information for ETSB:More info

Metar Taf Metar & Taf Last 4 Metars F.Rules Stats Wind Profile Meteogram Temp Stats Airport Information Weather charts Add Link Nearby VenuesMetar ALERT Operation Metar Decoded Social comments